sensor_id;sensor_type;location;lat;lon;timestamp;P1;durP1;ratioP1;P2;durP2;ratioP2
51190;SDS011;37253;48.736;9.294;2024-01-27T00:01:59;1.30;;;0.50;;
51190;SDS011;37253;48.736;9.294;2024-01-27T00:03:59;1.70;;;0.60;;
51190;SDS011;37253;48.736;9.294;2024-01-27T00:05:59;4.10;;;0.60;;
51190;SDS011;37253;48.736;9.294;2024-01-27T00:08:00;1.42;;;0.43;;
51190;SDS011;37253;48.736;9.294;2024-01-27T00:10:01;0.95;;;0.40;;
51190;SDS011;37253;48.736;9.294;2024-01-27T00:12:01;1.23;;;0.47;;
51190;SDS011;37253;48.736;9.294;2024-01-27T00:14:02;3.42;;;0.65;;
51190;SDS011;37253;48.736;9.294;2024-01-27T00:16:03;2.13;;;0.70;;
51190;SDS011;37253;48.736;9.294;2024-01-27T00:18:04;3.58;;;0.80;;
51190;SDS011;37253;48.736;9.294;2024-01-27T00:20:04;2.92;;;0.52;;
51190;SDS011;37253;48.736;9.294;2024-01-27T00:22:06;3.03;;;0.60;;
51190;SDS011;37253;48.736;9.294;2024-01-27T00:24:06;2.25;;;0.50;;
51190;SDS011;37253;48.736;9.294;2024-01-27T00:26:07;5.47;;;0.52;;
51190;SDS011;37253;48.736;9.294;2024-01-27T00:28:07;1.55;;;0.50;;
51190;SDS011;37253;48.736;9.294;2024-01-27T00:30:07;2.17;;;0.52;;
51190;SDS011;37253;48.736;9.294;2024-01-27T00:32:08;0.70;;;0.35;;
51190;SDS011;37253;48.736;9.294;2024-01-27T00:34:08;1.75;;;0.60;;
51190;SDS011;37253;48.736;9.294;2024-01-27T00:36:08;0.75;;;0.40;;
51190;SDS011;37253;48.736;9.294;2024-01-27T00:38:09;1.73;;;0.63;;
51190;SDS011;37253;48.736;9.294;2024-01-27T00:40:09;2.08;;;0.52;;
51190;SDS011;37253;48.736;9.294;2024-01-27T00:42:10;1.17;;;0.43;;
51190;SDS011;37253;48.736;9.294;2024-01-27T00:44:11;2.17;;;0.60;;
51190;SDS011;37253;48.736;9.294;2024-01-27T00:46:11;1.00;;;0.50;;
51190;SDS011;37253;48.736;9.294;2024-01-27T00:48:11;3.00;;;0.50;;
51190;SDS011;37253;48.736;9.294;2024-01-27T00:50:12;1.00;;;0.50;;
51190;SDS011;37253;48.736;9.294;2024-01-27T00:52:12;2.92;;;0.60;;
51190;SDS011;37253;48.736;9.294;2024-01-27T00:54:12;1.58;;;0.60;;
51190;SDS011;37253;48.736;9.294;2024-01-27T00:56:13;2.22;;;0.73;;
51190;SDS011;37253;48.736;9.294;2024-01-27T00:58:13;0.88;;;0.60;;
51190;SDS011;37253;48.736;9.294;2024-01-27T01:00:13;1.98;;;0.50;;
51190;SDS011;37253;48.736;9.294;2024-01-27T01:02:14;4.45;;;0.55;;
51190;SDS011;37253;48.736;9.294;2024-01-27T01:04:14;2.33;;;0.52;;
51190;SDS011;37253;48.736;9.294;2024-01-27T01:06:15;2.17;;;0.50;;
51190;SDS011;37253;48.736;9.294;2024-01-27T01:08:15;1.83;;;0.38;;
51190;SDS011;37253;48.736;9.294;2024-01-27T01:10:15;0.80;;;0.40;;
51190;SDS011;37253;48.736;9.294;2024-01-27T01:12:16;3.20;;;0.40;;
51190;SDS011;37253;48.736;9.294;2024-01-27T01:14:16;1.85;;;0.50;;
51190;SDS011;37253;48.736;9.294;2024-01-27T01:16:16;1.38;;;0.50;;
51190;SDS011;37253;48.736;9.294;2024-01-27T01:18:17;1.27;;;0.60;;
51190;SDS011;37253;48.736;9.294;2024-01-27T01:20:17;1.95;;;0.57;;
51190;SDS011;37253;48.736;9.294;2024-01-27T01:22:17;2.13;;;0.60;;
51190;SDS011;37253;48.736;9.294;2024-01-27T01:24:18;0.75;;;0.50;;
51190;SDS011;37253;48.736;9.294;2024-01-27T01:26:18;1.52;;;0.40;;
51190;SDS011;37253;48.736;9.294;2024-01-27T01:28:18;1.73;;;0.60;;
51190;SDS011;37253;48.736;9.294;2024-01-27T01:30:20;2.28;;;0.47;;
51190;SDS011;37253;48.736;9.294;2024-01-27T01:32:20;2.25;;;0.50;;
51190;SDS011;37253;48.736;9.294;2024-01-27T01:34:20;1.52;;;0.50;;
51190;SDS011;37253;48.736;9.294;2024-01-27T01:36:21;0.60;;;0.30;;
51190;SDS011;37253;48.736;9.294;2024-01-27T01:38:21;1.80;;;0.57;;
51190;SDS011;37253;48.736;9.294;2024-01-27T01:40:21;3.28;;;0.40;;
51190;SDS011;37253;48.736;9.294;2024-01-27T01:42:21;0.90;;;0.40;;
51190;SDS011;37253;48.736;9.294;2024-01-27T01:44:29;2.85;;;0.50;;
51190;SDS011;37253;48.736;9.294;2024-01-27T01:46:30;0.55;;;0.30;;
51190;SDS011;37253;48.736;9.294;2024-01-27T01:48:31;1.67;;;0.60;;
51190;SDS011;37253;48.736;9.294;2024-01-27T01:50:31;1.17;;;0.55;;
51190;SDS011;37253;48.736;9.294;2024-01-27T01:52:32;1.75;;;0.40;;
51190;SDS011;37253;48.736;9.294;2024-01-27T01:54:32;1.48;;;0.50;;
51190;SDS011;37253;48.736;9.294;2024-01-27T01:56:33;1.15;;;0.40;;
51190;SDS011;37253;48.736;9.294;2024-01-27T01:58:34;1.67;;;0.40;;
51190;SDS011;37253;48.736;9.294;2024-01-27T02:00:34;2.53;;;0.50;;
51190;SDS011;37253;48.736;9.294;2024-01-27T02:02:34;0.85;;;0.38;;
51190;SDS011;37253;48.736;9.294;2024-01-27T02:04:41;0.90;;;0.50;;
51190;SDS011;37253;48.736;9.294;2024-01-27T02:06:45;0.60;;;0.40;;
51190;SDS011;37253;48.736;9.294;2024-01-27T02:08:47;2.28;;;0.50;;
51190;SDS011;37253;48.736;9.294;2024-01-27T02:10:47;0.93;;;0.30;;
51190;SDS011;37253;48.736;9.294;2024-01-27T02:12:47;1.00;;;0.50;;
51190;SDS011;37253;48.736;9.294;2024-01-27T02:14:48;6.63;;;0.60;;
51190;SDS011;37253;48.736;9.294;2024-01-27T02:16:48;1.02;;;0.45;;
51190;SDS011;37253;48.736;9.294;2024-01-27T02:18:48;0.30;;;0.30;;
51190;SDS011;37253;48.736;9.294;2024-01-27T02:20:48;2.40;;;0.50;;
51190;SDS011;37253;48.736;9.294;2024-01-27T02:22:49;0.68;;;0.40;;
51190;SDS011;37253;48.736;9.294;2024-01-27T02:24:49;1.00;;;0.40;;
51190;SDS011;37253;48.736;9.294;2024-01-27T02:26:49;0.55;;;0.40;;
51190;SDS011;37253;48.736;9.294;2024-01-27T02:28:50;1.67;;;0.40;;
51190;SDS011;37253;48.736;9.294;2024-01-27T02:30:50;1.80;;;0.50;;
51190;SDS011;37253;48.736;9.294;2024-01-27T02:32:51;1.15;;;0.40;;
51190;SDS011;37253;48.736;9.294;2024-01-27T02:34:51;2.33;;;0.50;;
51190;SDS011;37253;48.736;9.294;2024-01-27T02:36:52;2.00;;;0.50;;
51190;SDS011;37253;48.736;9.294;2024-01-27T02:38:52;1.67;;;0.60;;
51190;SDS011;37253;48.736;9.294;2024-01-27T02:40:52;0.50;;;0.38;;
51190;SDS011;37253;48.736;9.294;2024-01-27T02:42:53;1.15;;;0.50;;
51190;SDS011;37253;48.736;9.294;2024-01-27T02:44:53;2.05;;;0.60;;
51190;SDS011;37253;48.736;9.294;2024-01-27T02:46:53;1.15;;;0.60;;
51190;SDS011;37253;48.736;9.294;2024-01-27T02:48:54;1.02;;;0.50;;
51190;SDS011;37253;48.736;9.294;2024-01-27T02:50:55;1.00;;;0.60;;
51190;SDS011;37253;48.736;9.294;2024-01-27T02:52:55;1.08;;;0.50;;
51190;SDS011;37253;48.736;9.294;2024-01-27T02:54:55;0.73;;;0.32;;
51190;SDS011;37253;48.736;9.294;2024-01-27T02:56:56;0.70;;;0.32;;
51190;SDS011;37253;48.736;9.294;2024-01-27T02:58:56;1.13;;;0.50;;
51190;SDS011;37253;48.736;9.294;2024-01-27T03:00:57;2.30;;;0.55;;
51190;SDS011;37253;48.736;9.294;2024-01-27T03:02:57;0.73;;;0.47;;
51190;SDS011;37253;48.736;9.294;2024-01-27T03:04:58;1.85;;;0.47;;
51190;SDS011;37253;48.736;9.294;2024-01-27T03:06:58;1.40;;;0.47;;
51190;SDS011;37253;48.736;9.294;2024-01-27T03:08:59;0.85;;;0.40;;
51190;SDS011;37253;48.736;9.294;2024-01-27T03:10:59;1.10;;;0.70;;
51190;SDS011;37253;48.736;9.294;2024-01-27T03:12:59;1.10;;;0.50;;
51190;SDS011;37253;48.736;9.294;2024-01-27T03:14:59;2.00;;;0.40;;
51190;SDS011;37253;48.736;9.294;2024-01-27T03:17:00;1.30;;;0.50;;
51190;SDS011;37253;48.736;9.294;2024-01-27T03:19:00;1.48;;;0.60;;
51190;SDS011;37253;48.736;9.294;2024-01-27T03:21:01;1.65;;;0.38;;
51190;SDS011;37253;48.736;9.294;2024-01-27T03:23:01;0.52;;;0.38;;
51190;SDS011;37253;48.736;9.294;2024-01-27T03:25:01;1.92;;;0.60;;
51190;SDS011;37253;48.736;9.294;2024-01-27T03:27:02;0.88;;;0.45;;
51190;SDS011;37253;48.736;9.294;2024-01-27T03:29:02;0.60;;;0.40;;
51190;SDS011;37253;48.736;9.294;2024-01-27T03:31:02;1.15;;;0.47;;
51190;SDS011;37253;48.736;9.294;2024-01-27T03:33:03;0.77;;;0.40;;
51190;SDS011;37253;48.736;9.294;2024-01-27T03:35:03;1.80;;;0.40;;
51190;SDS011;37253;48.736;9.294;2024-01-27T03:37:04;1.58;;;0.80;;
51190;SDS011;37253;48.736;9.294;2024-01-27T03:39:05;0.93;;;0.40;;
51190;SDS011;37253;48.736;9.294;2024-01-27T03:41:05;1.60;;;0.50;;
51190;SDS011;37253;48.736;9.294;2024-01-27T03:43:06;1.05;;;0.40;;
51190;SDS011;37253;48.736;9.294;2024-01-27T03:45:06;0.50;;;0.30;;
51190;SDS011;37253;48.736;9.294;2024-01-27T03:47:06;1.30;;;0.63;;
51190;SDS011;37253;48.736;9.294;2024-01-27T03:49:07;1.23;;;0.50;;
51190;SDS011;37253;48.736;9.294;2024-01-27T03:51:07;1.15;;;0.50;;
51190;SDS011;37253;48.736;9.294;2024-01-27T03:53:07;0.55;;;0.50;;
51190;SDS011;37253;48.736;9.294;2024-01-27T03:55:08;1.33;;;0.35;;
51190;SDS011;37253;48.736;9.294;2024-01-27T03:57:08;1.02;;;0.50;;
51190;SDS011;37253;48.736;9.294;2024-01-27T03:59:08;0.80;;;0.40;;
51190;SDS011;37253;48.736;9.294;2024-01-27T04:01:10;0.80;;;0.40;;
51190;SDS011;37253;48.736;9.294;2024-01-27T04:03:11;1.20;;;0.40;;
51190;SDS011;37253;48.736;9.294;2024-01-27T04:05:11;1.10;;;0.50;;
51190;SDS011;37253;48.736;9.294;2024-01-27T04:07:11;1.08;;;0.60;;
51190;SDS011;37253;48.736;9.294;2024-01-27T04:09:12;0.57;;;0.38;;
51190;SDS011;37253;48.736;9.294;2024-01-27T04:11:18;1.05;;;0.50;;
51190;SDS011;37253;48.736;9.294;2024-01-27T04:13:22;1.98;;;0.57;;
51190;SDS011;37253;48.736;9.294;2024-01-27T04:15:22;0.75;;;0.50;;
51190;SDS011;37253;48.736;9.294;2024-01-27T04:17:22;1.30;;;0.50;;
51190;SDS011;37253;48.736;9.294;2024-01-27T04:19:23;2.80;;;0.50;;
51190;SDS011;37253;48.736;9.294;2024-01-27T04:21:23;1.52;;;0.50;;
51190;SDS011;37253;48.736;9.294;2024-01-27T04:23:23;0.70;;;0.38;;
51190;SDS011;37253;48.736;9.294;2024-01-27T04:25:24;0.88;;;0.50;;
51190;SDS011;37253;48.736;9.294;2024-01-27T04:27:27;0.70;;;0.45;;
51190;SDS011;37253;48.736;9.294;2024-01-27T04:29:27;0.88;;;0.45;;
51190;SDS011;37253;48.736;9.294;2024-01-27T04:31:27;0.55;;;0.38;;
51190;SDS011;37253;48.736;9.294;2024-01-27T04:33:28;0.80;;;0.43;;
51190;SDS011;37253;48.736;9.294;2024-01-27T04:35:28;1.40;;;0.50;;
51190;SDS011;37253;48.736;9.294;2024-01-27T04:37:28;0.70;;;0.40;;
51190;SDS011;37253;48.736;9.294;2024-01-27T04:39:29;0.80;;;0.40;;
51190;SDS011;37253;48.736;9.294;2024-01-27T04:41:29;0.70;;;0.47;;
51190;SDS011;37253;48.736;9.294;2024-01-27T04:43:30;0.95;;;0.50;;
51190;SDS011;37253;48.736;9.294;2024-01-27T04:45:30;0.90;;;0.50;;
51190;SDS011;37253;48.736;9.294;2024-01-27T04:47:30;0.60;;;0.40;;
51190;SDS011;37253;48.736;9.294;2024-01-27T04:49:31;0.88;;;0.45;;
51190;SDS011;37253;48.736;9.294;2024-01-27T04:51:31;0.63;;;0.40;;
51190;SDS011;37253;48.736;9.294;2024-01-27T04:53:31;1.05;;;0.45;;
51190;SDS011;37253;48.736;9.294;2024-01-27T04:55:32;0.93;;;0.50;;
51190;SDS011;37253;48.736;9.294;2024-01-27T04:57:33;1.00;;;0.40;;
51190;SDS011;37253;48.736;9.294;2024-01-27T04:59:33;1.70;;;0.47;;
51190;SDS011;37253;48.736;9.294;2024-01-27T05:01:33;0.90;;;0.60;;
51190;SDS011;37253;48.736;9.294;2024-01-27T05:03:34;0.68;;;0.40;;
51190;SDS011;37253;48.736;9.294;2024-01-27T05:05:35;0.63;;;0.35;;
51190;SDS011;37253;48.736;9.294;2024-01-27T05:07:35;1.52;;;0.50;;
51190;SDS011;37253;48.736;9.294;2024-01-27T05:09:36;0.77;;;0.47;;
51190;SDS011;37253;48.736;9.294;2024-01-27T05:11:36;0.38;;;0.30;;
51190;SDS011;37253;48.736;9.294;2024-01-27T05:13:36;3.00;;;0.70;;
51190;SDS011;37253;48.736;9.294;2024-01-27T05:15:37;1.90;;;0.40;;
51190;SDS011;37253;48.736;9.294;2024-01-27T05:17:38;0.75;;;0.40;;
51190;SDS011;37253;48.736;9.294;2024-01-27T05:19:38;0.57;;;0.32;;
51190;SDS011;37253;48.736;9.294;2024-01-27T05:21:38;0.43;;;0.35;;
51190;SDS011;37253;48.736;9.294;2024-01-27T05:23:39;1.05;;;0.35;;
51190;SDS011;37253;48.736;9.294;2024-01-27T05:25:39;1.00;;;0.50;;
51190;SDS011;37253;48.736;9.294;2024-01-27T05:27:39;0.55;;;0.40;;
51190;SDS011;37253;48.736;9.294;2024-01-27T05:29:40;1.63;;;0.57;;
51190;SDS011;37253;48.736;9.294;2024-01-27T05:31:40;0.80;;;0.60;;
51190;SDS011;37253;48.736;9.294;2024-01-27T05:33:43;1.90;;;0.68;;
51190;SDS011;37253;48.736;9.294;2024-01-27T05:35:43;0.93;;;0.50;;
51190;SDS011;37253;48.736;9.294;2024-01-27T05:37:43;1.60;;;0.50;;
51190;SDS011;37253;48.736;9.294;2024-01-27T05:39:44;1.13;;;0.50;;
51190;SDS011;37253;48.736;9.294;2024-01-27T05:41:44;0.93;;;0.50;;
51190;SDS011;37253;48.736;9.294;2024-01-27T05:43:44;1.48;;;0.40;;
51190;SDS011;37253;48.736;9.294;2024-01-27T05:45:45;1.05;;;0.40;;
51190;SDS011;37253;48.736;9.294;2024-01-27T05:47:46;1.00;;;0.60;;
51190;SDS011;37253;48.736;9.294;2024-01-27T05:49:46;1.95;;;0.50;;
51190;SDS011;37253;48.736;9.294;2024-01-27T05:51:46;1.75;;;0.60;;
51190;SDS011;37253;48.736;9.294;2024-01-27T05:53:48;0.80;;;0.45;;
51190;SDS011;37253;48.736;9.294;2024-01-27T05:55:49;1.40;;;0.50;;
51190;SDS011;37253;48.736;9.294;2024-01-27T05:57:49;0.60;;;0.40;;
51190;SDS011;37253;48.736;9.294;2024-01-27T05:59:49;0.95;;;0.50;;
51190;SDS011;37253;48.736;9.294;2024-01-27T06:01:49;0.90;;;0.50;;
51190;SDS011;37253;48.736;9.294;2024-01-27T06:03:50;1.55;;;0.50;;
51190;SDS011;37253;48.736;9.294;2024-01-27T06:05:50;0.60;;;0.40;;
51190;SDS011;37253;48.736;9.294;2024-01-27T06:07:50;1.33;;;0.50;;
51190;SDS011;37253;48.736;9.294;2024-01-27T06:09:51;1.02;;;0.50;;
51190;SDS011;37253;48.736;9.294;2024-01-27T06:11:51;1.48;;;0.52;;
51190;SDS011;37253;48.736;9.294;2024-01-27T06:13:51;1.52;;;0.45;;
51190;SDS011;37253;48.736;9.294;2024-01-27T06:15:52;1.02;;;0.50;;
51190;SDS011;37253;48.736;9.294;2024-01-27T06:17:52;0.75;;;0.50;;
51190;SDS011;37253;48.736;9.294;2024-01-27T06:19:52;2.13;;;0.70;;
51190;SDS011;37253;48.736;9.294;2024-01-27T06:21:53;0.80;;;0.47;;
51190;SDS011;37253;48.736;9.294;2024-01-27T06:23:53;0.77;;;0.50;;
51190;SDS011;37253;48.736;9.294;2024-01-27T06:25:53;1.75;;;0.50;;
51190;SDS011;37253;48.736;9.294;2024-01-27T06:27:54;1.60;;;0.60;;
51190;SDS011;37253;48.736;9.294;2024-01-27T06:29:54;1.23;;;0.70;;
51190;SDS011;37253;48.736;9.294;2024-01-27T06:31:54;0.60;;;0.47;;
51190;SDS011;37253;48.736;9.294;2024-01-27T06:33:55;0.52;;;0.40;;
51190;SDS011;37253;48.736;9.294;2024-01-27T06:35:55;1.98;;;0.70;;
51190;SDS011;37253;48.736;9.294;2024-01-27T06:37:55;1.13;;;0.50;;
51190;SDS011;37253;48.736;9.294;2024-01-27T06:39:56;0.90;;;0.47;;
51190;SDS011;37253;48.736;9.294;2024-01-27T06:41:56;0.60;;;0.40;;
51190;SDS011;37253;48.736;9.294;2024-01-27T06:43:56;1.35;;;0.50;;
51190;SDS011;37253;48.736;9.294;2024-01-27T06:45:57;1.23;;;0.50;;
51190;SDS011;37253;48.736;9.294;2024-01-27T06:47:57;0.60;;;0.45;;
51190;SDS011;37253;48.736;9.294;2024-01-27T06:49:58;1.65;;;0.40;;
51190;SDS011;37253;48.736;9.294;2024-01-27T06:51:58;0.68;;;0.50;;
51190;SDS011;37253;48.736;9.294;2024-01-27T06:53:59;0.57;;;0.47;;
51190;SDS011;37253;48.736;9.294;2024-01-27T06:55:59;1.83;;;0.60;;
51190;SDS011;37253;48.736;9.294;2024-01-27T06:57:59;1.35;;;0.43;;
51190;SDS011;37253;48.736;9.294;2024-01-27T07:00:00;1.23;;;0.50;;
51190;SDS011;37253;48.736;9.294;2024-01-27T07:02:00;1.52;;;0.60;;
51190;SDS011;37253;48.736;9.294;2024-01-27T07:04:00;1.15;;;0.47;;
51190;SDS011;37253;48.736;9.294;2024-01-27T07:06:01;0.73;;;0.45;;
51190;SDS011;37253;48.736;9.294;2024-01-27T07:08:01;2.83;;;0.60;;
51190;SDS011;37253;48.736;9.294;2024-01-27T07:10:02;1.15;;;0.50;;
51190;SDS011;37253;48.736;9.294;2024-01-27T07:12:03;1.38;;;0.60;;
51190;SDS011;37253;48.736;9.294;2024-01-27T07:14:03;1.08;;;0.60;;
51190;SDS011;37253;48.736;9.294;2024-01-27T07:16:04;1.35;;;0.50;;
51190;SDS011;37253;48.736;9.294;2024-01-27T07:18:05;1.10;;;0.60;;
51190;SDS011;37253;48.736;9.294;2024-01-27T07:20:05;0.93;;;0.55;;
51190;SDS011;37253;48.736;9.294;2024-01-27T07:22:07;0.95;;;0.40;;
51190;SDS011;37253;48.736;9.294;2024-01-27T07:24:07;1.83;;;0.50;;
51190;SDS011;37253;48.736;9.294;2024-01-27T07:26:09;1.42;;;0.50;;
51190;SDS011;37253;48.736;9.294;2024-01-27T07:28:09;0.63;;;0.38;;
51190;SDS011;37253;48.736;9.294;2024-01-27T07:30:10;0.70;;;0.50;;
51190;SDS011;37253;48.736;9.294;2024-01-27T07:32:11;2.20;;;0.70;;
51190;SDS011;37253;48.736;9.294;2024-01-27T07:34:13;1.25;;;0.47;;
51190;SDS011;37253;48.736;9.294;2024-01-27T07:36:13;0.85;;;0.60;;
51190;SDS011;37253;48.736;9.294;2024-01-27T07:38:13;0.60;;;0.50;;
51190;SDS011;37253;48.736;9.294;2024-01-27T07:40:14;1.05;;;0.55;;
51190;SDS011;37253;48.736;9.294;2024-01-27T07:42:14;0.68;;;0.50;;
51190;SDS011;37253;48.736;9.294;2024-01-27T07:44:15;1.05;;;0.40;;
51190;SDS011;37253;48.736;9.294;2024-01-27T07:46:17;0.52;;;0.50;;
51190;SDS011;37253;48.736;9.294;2024-01-27T07:48:21;2.45;;;0.50;;
51190;SDS011;37253;48.736;9.294;2024-01-27T07:50:22;0.50;;;0.35;;
51190;SDS011;37253;48.736;9.294;2024-01-27T07:52:23;2.03;;;0.52;;
51190;SDS011;37253;48.736;9.294;2024-01-27T07:54:23;3.28;;;0.40;;
51190;SDS011;37253;48.736;9.294;2024-01-27T07:56:24;0.82;;;0.40;;
51190;SDS011;37253;48.736;9.294;2024-01-27T07:58:24;1.10;;;0.60;;
51190;SDS011;37253;48.736;9.294;2024-01-27T08:00:24;1.67;;;0.50;;
51190;SDS011;37253;48.736;9.294;2024-01-27T08:02:25;0.98;;;0.60;;
51190;SDS011;37253;48.736;9.294;2024-01-27T08:04:26;2.38;;;0.70;;
51190;SDS011;37253;48.736;9.294;2024-01-27T08:06:27;0.90;;;0.50;;
51190;SDS011;37253;48.736;9.294;2024-01-27T08:08:29;1.17;;;0.50;;
51190;SDS011;37253;48.736;9.294;2024-01-27T08:10:29;1.30;;;0.68;;
51190;SDS011;37253;48.736;9.294;2024-01-27T08:12:30;1.10;;;0.60;;
51190;SDS011;37253;48.736;9.294;2024-01-27T08:14:30;0.60;;;0.45;;
51190;SDS011;37253;48.736;9.294;2024-01-27T08:16:30;0.77;;;0.40;;
51190;SDS011;37253;48.736;9.294;2024-01-27T08:18:31;0.73;;;0.38;;
51190;SDS011;37253;48.736;9.294;2024-01-27T08:20:31;1.33;;;0.50;;
51190;SDS011;37253;48.736;9.294;2024-01-27T08:22:32;0.68;;;0.43;;
51190;SDS011;37253;48.736;9.294;2024-01-27T08:24:32;0.55;;;0.50;;
51190;SDS011;37253;48.736;9.294;2024-01-27T08:26:32;1.38;;;0.60;;
51190;SDS011;37253;48.736;9.294;2024-01-27T08:28:33;2.88;;;0.50;;
51190;SDS011;37253;48.736;9.294;2024-01-27T08:30:33;1.38;;;0.70;;
51190;SDS011;37253;48.736;9.294;2024-01-27T08:32:33;0.95;;;0.50;;
51190;SDS011;37253;48.736;9.294;2024-01-27T08:34:34;0.90;;;0.50;;
51190;SDS011;37253;48.736;9.294;2024-01-27T08:36:35;2.10;;;0.52;;
51190;SDS011;37253;48.736;9.294;2024-01-27T08:38:35;3.35;;;0.50;;
51190;SDS011;37253;48.736;9.294;2024-01-27T08:40:35;0.50;;;0.40;;
51190;SDS011;37253;48.736;9.294;2024-01-27T08:42:36;1.52;;;0.75;;
51190;SDS011;37253;48.736;9.294;2024-01-27T08:44:36;1.23;;;0.60;;
51190;SDS011;37253;48.736;9.294;2024-01-27T08:46:37;0.75;;;0.60;;
51190;SDS011;37253;48.736;9.294;2024-01-27T08:48:37;1.35;;;0.50;;
51190;SDS011;37253;48.736;9.294;2024-01-27T08:50:38;1.48;;;0.57;;
51190;SDS011;37253;48.736;9.294;2024-01-27T08:52:39;1.17;;;0.63;;
51190;SDS011;37253;48.736;9.294;2024-01-27T08:54:39;0.77;;;0.70;;
51190;SDS011;37253;48.736;9.294;2024-01-27T08:56:41;3.63;;;0.60;;
51190;SDS011;37253;48.736;9.294;2024-01-27T08:58:41;4.85;;;0.60;;
51190;SDS011;37253;48.736;9.294;2024-01-27T09:00:42;3.28;;;0.60;;
51190;SDS011;37253;48.736;9.294;2024-01-27T09:02:43;1.48;;;0.80;;
51190;SDS011;37253;48.736;9.294;2024-01-27T09:04:43;11.60;;;1.15;;
51190;SDS011;37253;48.736;9.294;2024-01-27T09:06:43;6.43;;;0.70;;
51190;SDS011;37253;48.736;9.294;2024-01-27T09:08:44;4.90;;;0.93;;
51190;SDS011;37253;48.736;9.294;2024-01-27T09:10:45;7.22;;;1.10;;
51190;SDS011;37253;48.736;9.294;2024-01-27T09:12:45;3.72;;;0.70;;
51190;SDS011;37253;48.736;9.294;2024-01-27T09:14:45;5.53;;;0.90;;
51190;SDS011;37253;48.736;9.294;2024-01-27T09:16:46;8.55;;;1.38;;
51190;SDS011;37253;48.736;9.294;2024-01-27T09:18:47;8.50;;;0.98;;
51190;SDS011;37253;48.736;9.294;2024-01-27T09:20:49;9.85;;;1.08;;
51190;SDS011;37253;48.736;9.294;2024-01-27T09:22:49;9.68;;;1.10;;
51190;SDS011;37253;48.736;9.294;2024-01-27T09:24:51;6.93;;;1.10;;
51190;SDS011;37253;48.736;9.294;2024-01-27T09:26:51;3.17;;;0.80;;
51190;SDS011;37253;48.736;9.294;2024-01-27T09:28:52;1.00;;;0.70;;
51190;SDS011;37253;48.736;9.294;2024-01-27T09:30:55;7.80;;;1.25;;
51190;SDS011;37253;48.736;9.294;2024-01-27T09:32:55;12.18;;;1.00;;
51190;SDS011;37253;48.736;9.294;2024-01-27T09:34:56;4.85;;;0.80;;
51190;SDS011;37253;48.736;9.294;2024-01-27T09:36:56;5.07;;;1.00;;
51190;SDS011;37253;48.736;9.294;2024-01-27T09:38:56;5.28;;;0.85;;
51190;SDS011;37253;48.736;9.294;2024-01-27T09:40:58;3.55;;;0.95;;
51190;SDS011;37253;48.736;9.294;2024-01-27T09:42:59;2.53;;;0.88;;
51190;SDS011;37253;48.736;9.294;2024-01-27T09:45:00;3.30;;;1.10;;
51190;SDS011;37253;48.736;9.294;2024-01-27T09:47:02;3.25;;;0.90;;
51190;SDS011;37253;48.736;9.294;2024-01-27T09:49:03;5.80;;;1.10;;
51190;SDS011;37253;48.736;9.294;2024-01-27T09:51:04;4.55;;;1.00;;
51190;SDS011;37253;48.736;9.294;2024-01-27T09:53:05;3.25;;;1.15;;
51190;SDS011;37253;48.736;9.294;2024-01-27T09:55:08;7.00;;;1.38;;
51190;SDS011;37253;48.736;9.294;2024-01-27T09:57:09;2.42;;;1.00;;
51190;SDS011;37253;48.736;9.294;2024-01-27T09:59:11;5.30;;;1.00;;
51190;SDS011;37253;48.736;9.294;2024-01-27T10:01:14;4.32;;;1.20;;
51190;SDS011;37253;48.736;9.294;2024-01-27T10:03:16;1.70;;;0.90;;
51190;SDS011;37253;48.736;9.294;2024-01-27T10:05:16;3.53;;;1.20;;
51190;SDS011;37253;48.736;9.294;2024-01-27T10:07:18;2.63;;;1.02;;
51190;SDS011;37253;48.736;9.294;2024-01-27T10:09:18;1.70;;;0.93;;
51190;SDS011;37253;48.736;9.294;2024-01-27T10:11:19;4.00;;;1.10;;
51190;SDS011;37253;48.736;9.294;2024-01-27T10:13:21;3.22;;;1.10;;
51190;SDS011;37253;48.736;9.294;2024-01-27T10:15:26;6.10;;;1.10;;
51190;SDS011;37253;48.736;9.294;2024-01-27T10:17:27;6.00;;;1.13;;
51190;SDS011;37253;48.736;9.294;2024-01-27T10:19:32;6.57;;;1.30;;
51190;SDS011;37253;48.736;9.294;2024-01-27T10:21:32;4.25;;;1.10;;
51190;SDS011;37253;48.736;9.294;2024-01-27T10:23:38;2.08;;;0.80;;
51190;SDS011;37253;48.736;9.294;2024-01-27T10:25:39;4.55;;;1.13;;
51190;SDS011;37253;48.736;9.294;2024-01-27T10:27:40;2.13;;;0.93;;
51190;SDS011;37253;48.736;9.294;2024-01-27T10:29:51;6.60;;;1.50;;
51190;SDS011;37253;48.736;9.294;2024-01-27T10:31:52;4.80;;;1.35;;
51190;SDS011;37253;48.736;9.294;2024-01-27T10:33:52;8.55;;;1.20;;
51190;SDS011;37253;48.736;9.294;2024-01-27T10:35:57;6.22;;;1.00;;
51190;SDS011;37253;48.736;9.294;2024-01-27T10:37:58;6.10;;;1.00;;
51190;SDS011;37253;48.736;9.294;2024-01-27T10:39:59;2.72;;;1.00;;
51190;SDS011;37253;48.736;9.294;2024-01-27T10:42:09;4.07;;;0.90;;
51190;SDS011;37253;48.736;9.294;2024-01-27T10:44:11;3.35;;;1.00;;
51190;SDS011;37253;48.736;9.294;2024-01-27T10:46:14;4.82;;;0.70;;
51190;SDS011;37253;48.736;9.294;2024-01-27T10:48:14;6.57;;;1.50;;
51190;SDS011;37253;48.736;9.294;2024-01-27T10:50:15;3.85;;;0.90;;
51190;SDS011;37253;48.736;9.294;2024-01-27T10:52:15;2.95;;;1.02;;
51190;SDS011;37253;48.736;9.294;2024-01-27T10:54:21;3.90;;;1.13;;
51190;SDS011;37253;48.736;9.294;2024-01-27T10:56:23;1.95;;;0.90;;
51190;SDS011;37253;48.736;9.294;2024-01-27T10:58:24;2.63;;;0.93;;
51190;SDS011;37253;48.736;9.294;2024-01-27T11:00:24;2.05;;;1.02;;
51190;SDS011;37253;48.736;9.294;2024-01-27T11:02:25;5.13;;;0.95;;
51190;SDS011;37253;48.736;9.294;2024-01-27T11:04:26;3.78;;;0.70;;
51190;SDS011;37253;48.736;9.294;2024-01-27T11:06:28;2.43;;;0.70;;
51190;SDS011;37253;48.736;9.294;2024-01-27T11:08:29;5.40;;;1.00;;
51190;SDS011;37253;48.736;9.294;2024-01-27T11:10:29;2.88;;;1.23;;
51190;SDS011;37253;48.736;9.294;2024-01-27T11:12:35;2.78;;;0.80;;
51190;SDS011;37253;48.736;9.294;2024-01-27T11:14:35;3.90;;;1.38;;
51190;SDS011;37253;48.736;9.294;2024-01-27T11:16:36;3.67;;;0.90;;
51190;SDS011;37253;48.736;9.294;2024-01-27T11:18:43;1.58;;;0.80;;
51190;SDS011;37253;48.736;9.294;2024-01-27T11:20:44;2.60;;;0.82;;
51190;SDS011;37253;48.736;9.294;2024-01-27T11:22:45;5.35;;;0.65;;
51190;SDS011;37253;48.736;9.294;2024-01-27T11:24:46;2.03;;;0.85;;
51190;SDS011;37253;48.736;9.294;2024-01-27T11:26:46;3.35;;;0.90;;
51190;SDS011;37253;48.736;9.294;2024-01-27T11:28:47;1.38;;;0.70;;
51190;SDS011;37253;48.736;9.294;2024-01-27T11:30:51;2.85;;;1.00;;
51190;SDS011;37253;48.736;9.294;2024-01-27T11:32:56;2.90;;;0.73;;
51190;SDS011;37253;48.736;9.294;2024-01-27T11:34:57;2.58;;;0.90;;
51190;SDS011;37253;48.736;9.294;2024-01-27T11:37:09;3.33;;;0.85;;
51190;SDS011;37253;48.736;9.294;2024-01-27T11:41:43;2.58;;;0.75;;
51190;SDS011;37253;48.736;9.294;2024-01-27T11:43:50;2.20;;;0.90;;
51190;SDS011;37253;48.736;9.294;2024-01-27T11:45:58;1.17;;;0.60;;
51190;SDS011;37253;48.736;9.294;2024-01-27T11:47:59;1.30;;;0.73;;
51190;SDS011;37253;48.736;9.294;2024-01-27T11:50:00;1.65;;;0.85;;
51190;SDS011;37253;48.736;9.294;2024-01-27T11:52:00;3.17;;;1.05;;
51190;SDS011;37253;48.736;9.294;2024-01-27T11:54:00;1.67;;;0.70;;
51190;SDS011;37253;48.736;9.294;2024-01-27T11:56:01;2.70;;;0.70;;
51190;SDS011;37253;48.736;9.294;2024-01-27T11:58:01;1.63;;;0.70;;
51190;SDS011;37253;48.736;9.294;2024-01-27T12:00:02;2.38;;;0.93;;
51190;SDS011;37253;48.736;9.294;2024-01-27T12:02:03;2.45;;;0.90;;
51190;SDS011;37253;48.736;9.294;2024-01-27T12:04:06;2.05;;;0.85;;
51190;SDS011;37253;48.736;9.294;2024-01-27T12:06:07;1.55;;;0.82;;
51190;SDS011;37253;48.736;9.294;2024-01-27T12:08:08;1.80;;;0.70;;
51190;SDS011;37253;48.736;9.294;2024-01-27T12:10:08;1.80;;;0.88;;
51190;SDS011;37253;48.736;9.294;2024-01-27T12:12:09;1.45;;;0.60;;